createdAt,value
2022-09-07T00:00:53.731Z,33.59
2022-09-07T00:03:21.080Z,34.04
2022-09-07T00:05:49.470Z,33.94
2022-09-07T00:08:18.136Z,33.85
2022-09-07T00:11:06.614Z,33.08
2022-09-07T00:13:35.847Z,34.76
2022-09-07T00:16:27.572Z,38.26
2022-09-07T00:18:55.724Z,37.37
2022-09-07T00:21:22.389Z,38.03
2022-09-07T00:23:50.278Z,38.15
2022-09-07T00:26:20.382Z,39.43
2022-09-07T00:28:47.291Z,41.20
2022-09-07T00:31:22.298Z,43.75
2022-09-07T00:33:50.640Z,44.28
2022-09-07T00:36:18.866Z,44.19
2022-09-07T00:38:45.698Z,44.29
2022-09-07T00:41:13.353Z,45.81
2022-09-07T00:43:45.437Z,46.16
2022-09-07T00:46:14.921Z,47.71
2022-09-07T00:49:02.806Z,48.34
2022-09-07T00:51:37.190Z,47.83
2022-09-07T00:54:11.042Z,48.97
2022-09-07T00:56:40.281Z,49.63
2022-09-07T00:59:07.695Z,49.41
2022-09-07T01:01:34.579Z,49.50
2022-09-07T01:04:02.083Z,49.84
2022-09-07T01:06:36.429Z,50.24
2022-09-07T01:09:06.999Z,49.08
2022-09-07T01:11:36.925Z,48.79
2022-09-07T01:14:07.033Z,50.64
2022-09-07T01:16:51.809Z,50.78
2022-09-07T01:19:24.651Z,50.48
2022-09-07T01:21:54.182Z,51.31
2022-09-07T01:24:42.871Z,51.74
2022-09-07T01:27:40.345Z,51.85
2022-09-07T01:30:10.119Z,52.83
2022-09-07T01:33:10.781Z,53.19
2022-09-07T01:35:44.862Z,55.45
2022-09-07T01:38:23.976Z,55.43
2022-09-07T01:41:04.866Z,58.77
2022-09-07T01:43:37.294Z,61.02
2022-09-07T01:46:06.833Z,62.64
2022-09-07T01:48:33.955Z,63.17
2022-09-07T01:51:03.031Z,65.74
2022-09-07T01:53:47.488Z,66.09
2022-09-07T01:56:19.443Z,65.92
2022-09-07T01:58:52.557Z,66.17
2022-09-07T02:01:28.482Z,66.24
2022-09-07T02:04:08.900Z,67.66
2022-09-07T02:06:48.422Z,68.18
2022-09-07T02:09:25.233Z,67.13
2022-09-07T02:11:52.112Z,67.42
2022-09-07T02:14:25.848Z,68.68
2022-09-07T02:17:06.863Z,70.84
2022-09-07T02:19:41.101Z,70.09
2022-09-07T02:22:14.748Z,71.25
2022-09-07T02:24:43.988Z,70.73
2022-09-07T02:27:19.766Z,69.41
2022-09-07T02:29:47.102Z,69.40
2022-09-07T02:32:13.771Z,69.52
2022-09-07T02:34:40.402Z,69.17
2022-09-07T02:37:09.011Z,69.33
2022-09-07T02:39:35.837Z,68.88
2022-09-07T02:42:03.001Z,68.88
2022-09-07T02:44:32.520Z,69.62
2022-09-07T02:47:20.900Z,71.43
2022-09-07T02:50:06.247Z,71.12
2022-09-07T02:52:42.923Z,70.74
2022-09-07T02:55:34.565Z,71.88
2022-09-07T02:58:16.390Z,71.02
2022-09-07T03:01:06.364Z,71.09
2022-09-07T03:03:48.368Z,70.54
2022-09-07T03:06:28.520Z,70.11
2022-09-07T03:08:58.174Z,70.24
2022-09-07T03:11:25.294Z,69.81
2022-09-07T03:13:51.859Z,68.37
2022-09-07T03:16:18.687Z,67.58
2022-09-07T03:18:45.423Z,67.90
2022-09-07T03:21:12.515Z,66.22
2022-09-07T03:23:39.133Z,66.48
2022-09-07T03:26:06.273Z,65.68
2022-09-07T03:28:32.899Z,64.63
2022-09-07T03:31:01.000Z,63.77
2022-09-07T03:33:27.982Z,63.71
2022-09-07T03:35:59.828Z,64.09
2022-09-07T03:38:26.910Z,63.29
2022-09-07T03:41:04.801Z,63.11
2022-09-07T03:43:32.258Z,63.12
2022-09-07T03:46:00.981Z,63.05
2022-09-07T03:48:31.084Z,62.08
2022-09-07T03:51:02.889Z,61.80
2022-09-07T03:53:37.653Z,61.05
2022-09-07T03:56:09.884Z,60.99
2022-09-07T03:58:36.563Z,60.88
2022-09-07T04:01:12.272Z,60.42
2022-09-07T04:03:39.715Z,60.51
2022-09-07T04:06:07.257Z,61.92
2022-09-07T04:08:35.591Z,62.03
2022-09-07T04:11:04.255Z,61.56
2022-09-07T04:13:31.710Z,61.28
2022-09-07T04:15:58.510Z,61.27
2022-09-07T04:18:25.445Z,61.12
2022-09-07T04:20:52.256Z,61.09
2022-09-07T04:23:19.672Z,60.37
2022-09-07T04:25:50.005Z,60.45
2022-09-07T04:28:17.638Z,59.77
2022-09-07T04:30:44.708Z,59.58
2022-09-07T04:33:11.590Z,59.24
2022-09-07T04:35:39.572Z,60.32
2022-09-07T04:38:07.057Z,60.40
2022-09-07T04:40:34.422Z,59.39
2022-09-07T04:43:01.079Z,59.34
2022-09-07T04:45:27.823Z,59.54
2022-09-07T04:47:54.395Z,59.48
2022-09-07T04:50:21.173Z,59.22
2022-09-07T04:52:47.706Z,59.56
2022-09-07T04:55:14.382Z,59.20
2022-09-07T04:57:41.025Z,59.37
2022-09-07T05:00:08.892Z,59.21
2022-09-07T05:02:35.591Z,59.33
2022-09-07T05:05:02.992Z,59.24
2022-09-07T05:07:30.124Z,59.49
2022-09-07T05:09:57.286Z,58.90
2022-09-07T05:12:24.024Z,58.51
2022-09-07T05:14:50.612Z,57.91
2022-09-07T05:17:17.262Z,57.89
2022-09-07T05:19:43.944Z,58.13
2022-09-07T05:22:10.932Z,57.99
2022-09-07T05:24:38.053Z,57.60
2022-09-07T05:27:04.882Z,57.38
2022-09-07T05:32:18.101Z,58.10
2022-09-07T05:34:45.465Z,58.51
2022-09-07T05:37:12.704Z,58.46
2022-09-07T05:39:39.259Z,57.99
2022-09-07T05:42:05.962Z,58.14
2022-09-07T05:44:48.103Z,57.79
2022-09-07T05:47:15.016Z,59.44
2022-09-07T05:49:41.665Z,57.78
2022-09-07T05:52:08.236Z,57.79
2022-09-07T05:54:35.111Z,57.90
2022-09-07T05:57:03.587Z,57.48
2022-09-07T05:59:30.292Z,57.14
2022-09-07T06:01:57.009Z,56.55
2022-09-07T06:04:23.878Z,57.18
2022-09-07T06:07:17.599Z,57.28
2022-09-07T06:12:24.443Z,56.96
2022-09-07T06:14:51.017Z,56.61
2022-09-07T06:17:17.546Z,56.36
2022-09-07T06:19:44.114Z,56.49
2022-09-07T06:22:10.663Z,57.01
2022-09-07T06:24:37.314Z,56.83
2022-09-07T06:27:04.602Z,56.97
2022-09-07T06:29:31.202Z,56.47
2022-09-07T06:34:44.669Z,55.32
2022-09-07T06:37:11.614Z,54.88
2022-09-07T06:39:38.182Z,54.40
2022-09-07T06:42:04.932Z,56.48
2022-09-07T06:44:31.564Z,56.12
2022-09-07T06:49:28.311Z,55.75
2022-09-07T06:51:55.057Z,56.21
2022-09-07T06:57:09.398Z,55.30
2022-09-07T06:59:36.922Z,54.82
2022-09-07T07:02:04.662Z,54.53
2022-09-07T07:04:32.401Z,55.30
2022-09-07T07:07:00.691Z,54.23
2022-09-07T07:09:27.232Z,52.92
2022-09-07T07:11:53.844Z,52.02
2022-09-07T07:14:21.206Z,51.68
2022-09-07T07:16:48.152Z,51.88
2022-09-07T07:19:15.396Z,50.27
2022-09-07T07:22:07.871Z,49.81
2022-09-07T07:24:28.970Z,51.93
2022-09-07T07:26:55.805Z,52.22
2022-09-07T07:29:24.031Z,53.15
2022-09-07T07:31:52.869Z,52.46
2022-09-07T07:34:19.457Z,53.41
2022-09-07T07:36:46.110Z,52.69
2022-09-07T07:42:03.502Z,52.45
2022-09-07T07:44:32.380Z,51.37
2022-09-07T07:46:59.042Z,49.41
2022-09-07T07:49:26.144Z,48.07
2022-09-07T07:54:43.433Z,48.86
2022-09-07T07:57:10.347Z,50.87
2022-09-07T07:59:37.001Z,49.87
2022-09-07T08:02:05.701Z,49.40
2022-09-07T08:04:33.881Z,48.91
2022-09-07T08:07:01.949Z,47.68
2022-09-07T08:09:30.076Z,46.11
2022-09-07T08:11:57.007Z,44.72
2022-09-07T08:14:23.532Z,47.01
2022-09-07T08:16:50.287Z,46.56
2022-09-07T08:19:16.832Z,45.84
2022-09-07T08:21:43.282Z,46.96
2022-09-07T08:24:10.067Z,44.93
2022-09-07T08:26:36.555Z,48.72
2022-09-07T08:29:03.314Z,46.49
2022-09-07T08:31:29.922Z,44.42
2022-09-07T08:33:56.646Z,43.85
2022-09-07T08:36:23.790Z,44.09
2022-09-07T08:38:50.460Z,45.41
2022-09-07T08:41:35.755Z,46.43
2022-09-07T08:44:12.290Z,45.10
2022-09-07T08:46:44.062Z,46.50
2022-09-07T08:49:17.710Z,46.05
2022-09-07T08:51:54.607Z,46.16
2022-09-07T08:54:21.190Z,48.16
2022-09-07T08:59:41.865Z,45.59
2022-09-07T09:02:36.559Z,45.02
2022-09-07T09:05:20.558Z,46.44
2022-09-07T09:07:57.383Z,45.22
2022-09-07T09:10:29.994Z,44.49
2022-09-07T09:12:58.779Z,44.16
2022-09-07T09:16:01.209Z,41.40
2022-09-07T09:18:39.959Z,41.54
2022-09-07T09:21:13.477Z,40.53
2022-09-07T09:23:41.864Z,40.38
2022-09-07T09:26:29.147Z,41.23
2022-09-07T09:28:55.839Z,39.99
2022-09-07T09:31:25.841Z,40.39
2022-09-07T09:34:13.677Z,38.97
2022-09-07T09:36:52.490Z,38.75
2022-09-07T09:39:36.153Z,37.62
2022-09-07T09:42:11.836Z,36.18
2022-09-07T09:44:38.701Z,35.93
2022-09-07T09:49:53.641Z,32.20
2022-09-07T09:52:31.785Z,32.07
2022-09-07T09:55:23.591Z,35.20
2022-09-07T10:01:21.131Z,33.94
2022-09-07T10:06:16.259Z,28.10
2022-09-07T10:08:55.391Z,23.89
2022-09-07T10:14:31.832Z,19.92
2022-09-07T10:16:59.144Z,17.98
2022-09-07T10:19:36.067Z,14.90
2022-09-07T10:22:05.127Z,12.25
2022-09-07T10:24:37.096Z,10.73
2022-09-07T10:27:24.267Z,10.33
2022-09-07T10:29:50.827Z,10.42
2022-09-07T10:32:23.405Z,10.90
2022-09-07T10:35:05.255Z,13.76
2022-09-07T10:37:59.391Z,14.05
2022-09-07T10:40:34.942Z,14.00
2022-09-07T10:43:23.393Z,15.02
2022-09-07T10:45:56.137Z,18.37
2022-09-07T10:48:34.955Z,20.47
2022-09-07T10:51:13.941Z,21.32
2022-09-07T10:54:30.707Z,22.62
2022-09-07T10:57:20.507Z,23.68
2022-09-07T11:00:10.070Z,27.91
2022-09-07T11:03:24.926Z,31.02
2022-09-07T11:05:36.041Z,27.96
2022-09-07T11:08:13.332Z,29.15
2022-09-07T11:10:47.144Z,31.14
2022-09-07T11:13:16.924Z,31.45
2022-09-07T11:15:48.010Z,32.28
2022-09-07T11:18:22.676Z,32.39
2022-09-07T11:20:55.349Z,33.04
2022-09-07T11:23:44.470Z,34.14
2022-09-07T11:26:38.178Z,34.90
2022-09-07T11:29:29.832Z,36.57
2022-09-07T11:32:04.679Z,37.94
2022-09-07T11:34:58.925Z,35.87
2022-09-07T11:37:46.491Z,33.22
2022-09-07T11:40:29.930Z,35.47
2022-09-07T11:43:05.245Z,33.42
2022-09-07T11:45:51.467Z,32.18
2022-09-07T11:48:21.837Z,31.60
2022-09-07T11:50:52.032Z,30.63
2022-09-07T11:53:21.996Z,31.21
2022-09-07T11:55:50.655Z,28.06
2022-09-07T11:58:48.189Z,30.84
2022-09-07T12:01:20.853Z,28.42
2022-09-07T12:04:02.074Z,21.87
2022-09-07T12:06:53.389Z,17.03
2022-09-07T12:09:35.109Z,15.15
2022-09-07T12:12:26.933Z,15.85
2022-09-07T12:15:03.219Z,16.41
2022-09-07T12:18:01.342Z,20.24
2022-09-07T12:20:48.406Z,24.34
2022-09-07T12:23:14.993Z,25.31
2022-09-07T12:25:43.639Z,26.58
2022-09-07T12:28:21.878Z,27.34
2022-09-07T12:30:59.532Z,30.27
2022-09-07T12:33:34.716Z,29.87
2022-09-07T12:36:02.463Z,31.75
2022-09-07T12:38:32.093Z,30.70
2022-09-07T12:41:00.713Z,32.19
2022-09-07T12:43:52.632Z,33.45
2022-09-07T12:46:40.404Z,33.83
2022-09-07T12:49:36.518Z,33.78
2022-09-07T12:52:21.855Z,32.90
2022-09-07T12:55:29.517Z,33.26
2022-09-07T12:58:24.883Z,33.05
2022-09-07T13:01:05.431Z,35.02
2022-09-07T13:03:51.372Z,35.04
2022-09-07T13:09:37.072Z,33.68
2022-09-07T13:15:31.658Z,32.29
2022-09-07T13:17:58.236Z,35.05
2022-09-07T13:20:30.220Z,35.07
2022-09-07T13:23:09.489Z,33.09
2022-09-07T13:25:45.597Z,32.68
2022-09-07T13:28:37.685Z,34.29
2022-09-07T13:31:16.613Z,35.30
2022-09-07T13:33:50.552Z,35.05
2022-09-07T13:36:25.730Z,34.01
2022-09-07T13:38:53.730Z,34.26
2022-09-07T13:41:29.966Z,34.72
2022-09-07T13:44:00.386Z,34.80
2022-09-07T13:46:39.307Z,34.61
2022-09-07T13:49:30.342Z,33.57
2022-09-07T13:52:18.220Z,33.56
2022-09-07T13:55:25.750Z,33.26
2022-09-07T13:58:26.543Z,34.92
2022-09-07T14:00:55.196Z,33.83
2022-09-07T14:03:24.355Z,32.93
2022-09-07T14:06:22.558Z,32.48
2022-09-07T14:08:55.009Z,31.70
2022-09-07T14:11:36.859Z,32.22
2022-09-07T14:14:14.315Z,32.58
2022-09-07T14:16:47.122Z,34.59
2022-09-07T14:19:24.093Z,33.89
2022-09-07T14:21:59.568Z,33.05
2022-09-07T14:24:36.249Z,32.69
2022-09-07T14:27:04.552Z,33.53
2022-09-07T14:29:33.355Z,33.96
2022-09-07T14:32:01.915Z,32.92
2022-09-07T14:34:32.193Z,35.63
2022-09-07T14:37:01.705Z,35.59
2022-09-07T14:39:35.633Z,35.41
2022-09-07T14:42:03.755Z,33.49
2022-09-07T14:44:39.390Z,33.70
2022-09-07T14:47:11.682Z,33.64
2022-09-07T14:49:38.763Z,32.98
2022-09-07T14:52:05.579Z,32.50
2022-09-07T14:54:33.956Z,32.70
2022-09-07T14:57:10.101Z,32.27
2022-09-07T14:59:42.320Z,33.48
2022-09-07T15:02:17.836Z,34.92
2022-09-07T15:04:49.362Z,33.70
2022-09-07T15:07:38.830Z,33.09
2022-09-07T15:10:20.846Z,33.04
2022-09-07T15:12:52.714Z,34.75
2022-09-07T15:15:21.777Z,35.42
2022-09-07T15:17:48.881Z,34.92
2022-09-07T15:20:44.279Z,34.26
2022-09-07T15:23:16.187Z,35.93
2022-09-07T15:25:49.681Z,35.07
2022-09-07T15:34:11.329Z,34.72
2022-09-07T15:36:40.764Z,34.25
2022-09-07T15:39:08.095Z,34.18
2022-09-07T15:41:34.871Z,34.01
2022-09-07T15:44:01.603Z,34.68
2022-09-07T15:46:28.393Z,35.20
2022-09-07T15:48:55.674Z,34.92
2022-09-07T15:54:14.240Z,35.92
2022-09-07T15:56:42.702Z,37.23
2022-09-07T15:59:10.502Z,36.40
2022-09-07T16:01:54.696Z,36.14
2022-09-07T16:04:24.139Z,36.37
2022-09-07T16:06:50.931Z,36.34
2022-09-07T16:09:21.121Z,35.66
2022-09-07T16:11:50.818Z,35.87
2022-09-07T16:14:17.726Z,35.80
2022-09-07T16:19:34.961Z,35.96
2022-09-07T16:22:03.134Z,35.40
2022-09-07T16:24:29.942Z,35.44
2022-09-07T16:26:56.514Z,36.80
2022-09-07T16:29:23.393Z,35.63
2022-09-07T16:34:36.627Z,35.59
2022-09-07T16:37:03.631Z,37.24
2022-09-07T16:39:30.316Z,35.52
2022-09-07T16:41:56.960Z,35.25
2022-09-07T16:44:23.767Z,35.86
2022-09-07T16:46:50.597Z,36.02
2022-09-07T16:49:17.708Z,36.08
2022-09-07T16:51:45.697Z,36.31
2022-09-07T16:54:17.031Z,36.28
2022-09-07T16:56:43.600Z,36.50
2022-09-07T16:59:15.890Z,36.51
2022-09-07T17:01:43.012Z,35.81
2022-09-07T17:04:11.177Z,36.08
2022-09-07T17:06:39.491Z,36.08
2022-09-07T17:09:06.823Z,36.62
2022-09-07T17:11:34.777Z,36.14
2022-09-07T17:14:01.861Z,36.63
2022-09-07T17:16:31.001Z,36.70
2022-09-07T17:21:50.117Z,37.91
2022-09-07T17:24:17.219Z,38.07
2022-09-07T17:26:43.933Z,39.17
2022-09-07T17:29:13.228Z,39.57
2022-09-07T17:34:26.625Z,41.01
2022-09-07T17:36:53.219Z,40.51
2022-09-07T17:39:20.236Z,42.06
2022-09-07T17:41:47.988Z,41.10
2022-09-07T17:44:14.702Z,42.09
2022-09-07T17:46:41.244Z,42.42
2022-09-07T17:49:12.143Z,42.83
2022-09-07T17:51:39.130Z,42.84
2022-09-07T17:54:10.873Z,42.80
2022-09-07T17:56:38.806Z,42.81
2022-09-07T18:01:54.072Z,44.02
2022-09-07T18:04:21.084Z,43.80
2022-09-07T18:06:47.730Z,44.21
2022-09-07T18:09:14.474Z,44.25
2022-09-07T18:11:47.216Z,44.21
2022-09-07T18:14:15.168Z,44.69
2022-09-07T18:16:43.357Z,44.57
2022-09-07T18:19:11.085Z,44.36
2022-09-07T18:21:39.309Z,45.07
2022-09-07T18:24:11.747Z,44.93
2022-09-07T18:26:39.805Z,45.08
2022-09-07T18:29:18.981Z,44.79
2022-09-07T18:31:53.046Z,45.00
2022-09-07T18:34:20.722Z,45.36
2022-09-07T18:36:47.354Z,45.32
2022-09-07T18:39:14.368Z,45.40
2022-09-07T18:41:42.154Z,45.22
2022-09-07T18:46:55.616Z,46.29
2022-09-07T18:49:22.117Z,47.16
2022-09-07T18:54:35.192Z,47.91
2022-09-07T18:57:01.689Z,47.82
2022-09-07T18:59:29.578Z,47.48
2022-09-07T19:02:00.138Z,47.80
2022-09-07T19:07:17.589Z,47.54
2022-09-07T19:09:44.273Z,47.99
2022-09-07T19:12:10.899Z,48.78
2022-09-07T19:14:37.496Z,49.11
2022-09-07T19:17:04.360Z,48.81
2022-09-07T19:19:31.335Z,48.60
2022-09-07T19:21:58.326Z,48.20
2022-09-07T19:24:25.729Z,48.19
2022-09-07T19:26:55.722Z,48.25
2022-09-07T19:29:25.165Z,48.49
2022-09-07T19:32:12.989Z,48.62
2022-09-07T19:34:41.475Z,48.68
2022-09-07T19:37:12.533Z,48.71
2022-09-07T19:39:39.733Z,48.24
2022-09-07T19:42:06.853Z,48.87
2022-09-07T19:44:33.618Z,48.91
2022-09-07T19:47:00.770Z,48.94
2022-09-07T19:49:28.160Z,48.75
2022-09-07T19:51:54.820Z,48.56
2022-09-07T19:54:21.382Z,48.63
2022-09-07T19:56:47.902Z,48.48
2022-09-07T19:59:14.707Z,48.61
2022-09-07T20:01:45.861Z,48.51
2022-09-07T20:04:19.491Z,48.37
2022-09-07T20:06:48.093Z,48.44
2022-09-07T20:09:14.831Z,48.26
2022-09-07T20:11:46.073Z,48.41
2022-09-07T20:14:17.631Z,49.37
2022-09-07T20:16:47.346Z,48.68
2022-09-07T20:19:17.354Z,48.74
2022-09-07T20:21:44.044Z,48.87
2022-09-07T20:24:12.189Z,48.87
2022-09-07T20:26:38.737Z,48.96
2022-09-07T20:29:26.200Z,48.46
2022-09-07T20:31:53.475Z,48.57
2022-09-07T20:34:20.158Z,48.90
2022-09-07T20:36:49.354Z,48.85
2022-09-07T20:39:16.692Z,48.60
2022-09-07T20:41:43.124Z,48.73
2022-09-07T20:44:09.671Z,48.94
2022-09-07T20:46:36.492Z,48.80
2022-09-07T20:49:03.784Z,49.44
2022-09-07T20:51:31.050Z,49.77
2022-09-07T20:53:57.860Z,49.82
2022-09-07T20:56:27.279Z,50.08
2022-09-07T20:58:55.926Z,49.96
2022-09-07T21:01:26.002Z,50.09
2022-09-07T21:03:54.526Z,49.86
2022-09-07T21:06:22.066Z,50.11
2022-09-07T21:08:49.407Z,49.74
2022-09-07T21:11:21.294Z,49.71
2022-09-07T21:13:48.373Z,49.99
2022-09-07T21:16:16.240Z,49.58
2022-09-07T21:18:44.296Z,50.00
2022-09-07T21:21:20.457Z,50.28
2022-09-07T21:23:47.861Z,49.82
2022-09-07T21:26:14.782Z,50.18
2022-09-07T21:28:41.310Z,50.17
2022-09-07T21:31:08.754Z,50.25
2022-09-07T21:33:36.276Z,50.36
2022-09-07T21:36:08.331Z,49.94
2022-09-07T21:38:35.971Z,50.54
2022-09-07T21:41:13.856Z,50.44
2022-09-07T21:43:40.976Z,50.81
2022-09-07T21:46:12.942Z,51.18
2022-09-07T21:48:39.643Z,51.00
2022-09-07T21:51:06.378Z,51.38
2022-09-07T21:53:33.261Z,51.07
2022-09-07T21:56:05.755Z,51.25
2022-09-07T21:58:33.099Z,51.26
2022-09-07T22:01:00.783Z,50.84
2022-09-07T22:03:27.587Z,51.01
2022-09-07T22:05:54.229Z,51.08
2022-09-07T22:08:20.748Z,50.89
2022-09-07T22:10:47.318Z,51.01
2022-09-07T22:13:14.015Z,51.26
2022-09-07T22:15:41.673Z,50.84
2022-09-07T22:18:11.648Z,51.37
2022-09-07T22:20:38.547Z,51.55
2022-09-07T22:23:05.603Z,51.25
2022-09-07T22:25:32.729Z,51.48
2022-09-07T22:27:59.638Z,51.32
2022-09-07T22:30:26.499Z,50.95
2022-09-07T22:32:53.078Z,51.58
2022-09-07T22:35:19.918Z,51.08
2022-09-07T22:37:46.499Z,50.89
2022-09-07T22:40:14.739Z,51.32
2022-09-07T22:42:41.939Z,51.41
2022-09-07T22:45:09.103Z,51.35
2022-09-07T22:47:35.642Z,52.17
2022-09-07T22:50:02.211Z,51.97
2022-09-07T22:52:28.979Z,52.50
2022-09-07T22:54:55.455Z,52.11
2022-09-07T22:57:21.993Z,51.80
2022-09-07T22:59:48.502Z,51.86
2022-09-07T23:02:14.961Z,51.75
2022-09-07T23:04:41.721Z,51.38
2022-09-07T23:07:08.300Z,52.48
2022-09-07T23:09:35.188Z,52.21
2022-09-07T23:12:01.975Z,52.30
2022-09-07T23:14:28.589Z,51.75
2022-09-07T23:16:55.174Z,51.77
2022-09-07T23:19:21.839Z,51.90
2022-09-07T23:21:51.283Z,51.71
2022-09-07T23:24:18.685Z,51.76
2022-09-07T23:26:46.931Z,52.17
2022-09-07T23:29:14.536Z,51.66
2022-09-07T23:31:41.771Z,52.84
2022-09-07T23:34:08.998Z,52.06
2022-09-07T23:36:36.680Z,51.80
2022-09-07T23:39:03.633Z,51.84
2022-09-07T23:41:30.501Z,51.91
2022-09-07T23:43:57.685Z,51.65
2022-09-07T23:46:24.562Z,52.12
2022-09-07T23:48:51.268Z,52.07
2022-09-07T23:51:23.481Z,52.07
2022-09-07T23:53:51.134Z,52.50
2022-09-07T23:56:17.684Z,52.09
2022-09-07T23:58:44.244Z,51.90
